sensor_id;sensor_type;location;lat;lon;timestamp;P1;durP1;ratioP1;P2;durP2;ratioP2
19621;SDS011;9958;33.196;-97.114;2023-03-08T00:00:21;21.27;;;10.45;;
19621;SDS011;9958;33.196;-97.114;2023-03-08T00:02:50;20.48;;;10.40;;
19621;SDS011;9958;33.196;-97.114;2023-03-08T00:05:21;15.30;;;10.20;;
19621;SDS011;9958;33.196;-97.114;2023-03-08T00:07:51;14.43;;;9.27;;
19621;SDS011;9958;33.196;-97.114;2023-03-08T00:10:19;14.25;;;10.13;;
19621;SDS011;9958;33.196;-97.114;2023-03-08T00:12:48;18.50;;;10.02;;
19621;SDS011;9958;33.196;-97.114;2023-03-08T00:15:16;17.45;;;9.60;;
19621;SDS011;9958;33.196;-97.114;2023-03-08T00:17:46;16.38;;;9.68;;
19621;SDS011;9958;33.196;-97.114;2023-03-08T00:20:15;16.88;;;9.38;;
19621;SDS011;9958;33.196;-97.114;2023-03-08T00:22:43;15.15;;;10.05;;
19621;SDS011;9958;33.196;-97.114;2023-03-08T00:25:11;16.35;;;10.00;;
19621;SDS011;9958;33.196;-97.114;2023-03-08T00:27:40;19.90;;;9.80;;
19621;SDS011;9958;33.196;-97.114;2023-03-08T00:30:09;16.40;;;9.57;;
19621;SDS011;9958;33.196;-97.114;2023-03-08T00:32:39;14.50;;;9.80;;
19621;SDS011;9958;33.196;-97.114;2023-03-08T00:35:09;17.70;;;10.77;;
19621;SDS011;9958;33.196;-97.114;2023-03-08T00:37:38;17.23;;;10.45;;
19621;SDS011;9958;33.196;-97.114;2023-03-08T00:40:06;15.57;;;9.98;;
19621;SDS011;9958;33.196;-97.114;2023-03-08T00:42:36;17.70;;;10.50;;
19621;SDS011;9958;33.196;-97.114;2023-03-08T00:45:04;14.98;;;9.48;;
19621;SDS011;9958;33.196;-97.114;2023-03-08T00:47:33;15.23;;;9.68;;
19621;SDS011;9958;33.196;-97.114;2023-03-08T00:50:05;20.60;;;10.88;;
19621;SDS011;9958;33.196;-97.114;2023-03-08T00:52:36;21.75;;;10.32;;
19621;SDS011;9958;33.196;-97.114;2023-03-08T00:55:05;21.52;;;10.63;;
19621;SDS011;9958;33.196;-97.114;2023-03-08T00:57:34;16.95;;;9.57;;
19621;SDS011;9958;33.196;-97.114;2023-03-08T01:00:02;19.00;;;10.35;;
19621;SDS011;9958;33.196;-97.114;2023-03-08T01:02:35;16.38;;;10.20;;
19621;SDS011;9958;33.196;-97.114;2023-03-08T01:05:05;18.52;;;10.43;;
19621;SDS011;9958;33.196;-97.114;2023-03-08T01:07:37;18.38;;;10.88;;
19621;SDS011;9958;33.196;-97.114;2023-03-08T01:10:06;17.83;;;10.68;;
19621;SDS011;9958;33.196;-97.114;2023-03-08T01:12:37;19.25;;;10.15;;
19621;SDS011;9958;33.196;-97.114;2023-03-08T01:15:06;17.73;;;10.00;;
19621;SDS011;9958;33.196;-97.114;2023-03-08T01:17:35;18.05;;;10.65;;
19621;SDS011;9958;33.196;-97.114;2023-03-08T01:20:04;22.95;;;11.63;;
19621;SDS011;9958;33.196;-97.114;2023-03-08T01:22:33;19.40;;;10.23;;
19621;SDS011;9958;33.196;-97.114;2023-03-08T01:25:03;18.20;;;10.45;;
19621;SDS011;9958;33.196;-97.114;2023-03-08T01:27:34;18.35;;;10.90;;
19621;SDS011;9958;33.196;-97.114;2023-03-08T01:30:03;21.67;;;11.43;;
19621;SDS011;9958;33.196;-97.114;2023-03-08T01:32:35;17.98;;;9.98;;
19621;SDS011;9958;33.196;-97.114;2023-03-08T01:35:03;15.63;;;9.77;;
19621;SDS011;9958;33.196;-97.114;2023-03-08T01:37:32;17.92;;;10.13;;
19621;SDS011;9958;33.196;-97.114;2023-03-08T01:40:00;14.75;;;9.45;;
19621;SDS011;9958;33.196;-97.114;2023-03-08T01:42:31;24.33;;;10.30;;
19621;SDS011;9958;33.196;-97.114;2023-03-08T01:45:01;18.33;;;10.57;;
19621;SDS011;9958;33.196;-97.114;2023-03-08T01:47:32;19.45;;;10.35;;
19621;SDS011;9958;33.196;-97.114;2023-03-08T01:50:05;18.08;;;10.77;;
19621;SDS011;9958;33.196;-97.114;2023-03-08T01:52:37;21.83;;;11.00;;
19621;SDS011;9958;33.196;-97.114;2023-03-08T01:55:12;19.17;;;10.30;;
19621;SDS011;9958;33.196;-97.114;2023-03-08T01:57:44;16.58;;;10.27;;
19621;SDS011;9958;33.196;-97.114;2023-03-08T02:00:15;16.33;;;10.52;;
19621;SDS011;9958;33.196;-97.114;2023-03-08T02:02:48;15.23;;;10.70;;
19621;SDS011;9958;33.196;-97.114;2023-03-08T02:05:19;20.17;;;10.30;;
19621;SDS011;9958;33.196;-97.114;2023-03-08T02:07:48;20.15;;;10.57;;
19621;SDS011;9958;33.196;-97.114;2023-03-08T02:10:18;19.88;;;10.85;;
19621;SDS011;9958;33.196;-97.114;2023-03-08T02:12:47;17.98;;;11.48;;
19621;SDS011;9958;33.196;-97.114;2023-03-08T02:15:19;14.80;;;10.10;;
19621;SDS011;9958;33.196;-97.114;2023-03-08T02:17:48;19.30;;;11.13;;
19621;SDS011;9958;33.196;-97.114;2023-03-08T02:20:16;18.00;;;11.40;;
19621;SDS011;9958;33.196;-97.114;2023-03-08T02:22:49;18.38;;;10.75;;
19621;SDS011;9958;33.196;-97.114;2023-03-08T02:25:19;19.13;;;11.43;;
19621;SDS011;9958;33.196;-97.114;2023-03-08T02:27:48;19.45;;;11.52;;
19621;SDS011;9958;33.196;-97.114;2023-03-08T02:30:22;18.42;;;10.70;;
19621;SDS011;9958;33.196;-97.114;2023-03-08T02:32:52;21.00;;;10.65;;
19621;SDS011;9958;33.196;-97.114;2023-03-08T02:35:20;17.88;;;11.38;;
19621;SDS011;9958;33.196;-97.114;2023-03-08T02:37:50;23.98;;;12.35;;
19621;SDS011;9958;33.196;-97.114;2023-03-08T02:40:18;21.58;;;11.45;;
19621;SDS011;9958;33.196;-97.114;2023-03-08T02:42:47;19.55;;;12.02;;
19621;SDS011;9958;33.196;-97.114;2023-03-08T02:45:15;20.38;;;11.43;;
19621;SDS011;9958;33.196;-97.114;2023-03-08T02:47:44;16.90;;;10.35;;
19621;SDS011;9958;33.196;-97.114;2023-03-08T02:50:12;21.05;;;11.15;;
19621;SDS011;9958;33.196;-97.114;2023-03-08T02:52:41;20.50;;;10.88;;
19621;SDS011;9958;33.196;-97.114;2023-03-08T02:55:11;21.33;;;12.00;;
19621;SDS011;9958;33.196;-97.114;2023-03-08T02:57:39;20.92;;;11.85;;
19621;SDS011;9958;33.196;-97.114;2023-03-08T03:00:08;18.90;;;11.77;;
19621;SDS011;9958;33.196;-97.114;2023-03-08T03:02:37;21.52;;;11.57;;
19621;SDS011;9958;33.196;-97.114;2023-03-08T03:05:06;20.58;;;10.70;;
19621;SDS011;9958;33.196;-97.114;2023-03-08T03:07:40;18.95;;;11.65;;
19621;SDS011;9958;33.196;-97.114;2023-03-08T03:10:09;20.45;;;12.00;;
19621;SDS011;9958;33.196;-97.114;2023-03-08T03:12:40;22.02;;;12.85;;
19621;SDS011;9958;33.196;-97.114;2023-03-08T03:15:09;19.90;;;12.27;;
19621;SDS011;9958;33.196;-97.114;2023-03-08T03:17:38;21.23;;;12.23;;
19621;SDS011;9958;33.196;-97.114;2023-03-08T03:20:06;23.00;;;12.10;;
19621;SDS011;9958;33.196;-97.114;2023-03-08T03:22:36;21.08;;;11.68;;
19621;SDS011;9958;33.196;-97.114;2023-03-08T03:25:04;18.95;;;11.38;;
19621;SDS011;9958;33.196;-97.114;2023-03-08T03:27:35;19.13;;;10.82;;
19621;SDS011;9958;33.196;-97.114;2023-03-08T03:30:04;15.50;;;7.63;;
19621;SDS011;9958;33.196;-97.114;2023-03-08T03:32:34;9.50;;;6.03;;
19621;SDS011;9958;33.196;-97.114;2023-03-08T03:35:02;8.27;;;4.90;;
19621;SDS011;9958;33.196;-97.114;2023-03-08T03:37:32;8.10;;;5.38;;
19621;SDS011;9958;33.196;-97.114;2023-03-08T03:40:01;6.65;;;4.57;;
19621;SDS011;9958;33.196;-97.114;2023-03-08T03:42:29;7.03;;;4.45;;
19621;SDS011;9958;33.196;-97.114;2023-03-08T03:44:59;6.03;;;4.25;;
19621;SDS011;9958;33.196;-97.114;2023-03-08T03:47:28;11.68;;;4.05;;
19621;SDS011;9958;33.196;-97.114;2023-03-08T03:49:56;6.88;;;3.70;;
19621;SDS011;9958;33.196;-97.114;2023-03-08T03:52:24;7.88;;;4.63;;
19621;SDS011;9958;33.196;-97.114;2023-03-08T03:54:52;4.30;;;3.60;;
19621;SDS011;9958;33.196;-97.114;2023-03-08T03:57:21;9.20;;;3.78;;
19621;SDS011;9958;33.196;-97.114;2023-03-08T03:59:49;3.65;;;2.95;;
19621;SDS011;9958;33.196;-97.114;2023-03-08T04:02:19;5.00;;;3.22;;
19621;SDS011;9958;33.196;-97.114;2023-03-08T04:04:47;6.53;;;3.85;;
19621;SDS011;9958;33.196;-97.114;2023-03-08T04:07:16;8.88;;;3.45;;
19621;SDS011;9958;33.196;-97.114;2023-03-08T04:09:44;4.05;;;3.05;;
19621;SDS011;9958;33.196;-97.114;2023-03-08T04:12:13;5.30;;;3.53;;
19621;SDS011;9958;33.196;-97.114;2023-03-08T04:14:41;6.13;;;3.35;;
19621;SDS011;9958;33.196;-97.114;2023-03-08T04:17:09;5.03;;;3.45;;
19621;SDS011;9958;33.196;-97.114;2023-03-08T04:19:39;7.97;;;3.53;;
19621;SDS011;9958;33.196;-97.114;2023-03-08T04:22:08;5.15;;;3.17;;
19621;SDS011;9958;33.196;-97.114;2023-03-08T04:24:36;4.07;;;3.08;;
19621;SDS011;9958;33.196;-97.114;2023-03-08T04:27:04;5.32;;;3.42;;
19621;SDS011;9958;33.196;-97.114;2023-03-08T04:29:33;6.70;;;3.58;;
19621;SDS011;9958;33.196;-97.114;2023-03-08T04:32:01;4.55;;;3.25;;
19621;SDS011;9958;33.196;-97.114;2023-03-08T04:34:29;4.22;;;3.30;;
19621;SDS011;9958;33.196;-97.114;2023-03-08T04:36:59;5.65;;;3.58;;
19621;SDS011;9958;33.196;-97.114;2023-03-08T04:39:28;4.18;;;3.55;;
19621;SDS011;9958;33.196;-97.114;2023-03-08T04:41:56;6.32;;;3.17;;
19621;SDS011;9958;33.196;-97.114;2023-03-08T04:44:24;5.00;;;3.25;;
19621;SDS011;9958;33.196;-97.114;2023-03-08T04:46:52;5.38;;;3.63;;
19621;SDS011;9958;33.196;-97.114;2023-03-08T04:49:21;8.85;;;3.85;;
19621;SDS011;9958;33.196;-97.114;2023-03-08T04:51:50;5.40;;;4.00;;
19621;SDS011;9958;33.196;-97.114;2023-03-08T04:54:20;5.07;;;3.45;;
19621;SDS011;9958;33.196;-97.114;2023-03-08T04:56:48;8.32;;;3.85;;
19621;SDS011;9958;33.196;-97.114;2023-03-08T04:59:17;6.28;;;4.00;;
19621;SDS011;9958;33.196;-97.114;2023-03-08T05:01:45;8.18;;;4.22;;
19621;SDS011;9958;33.196;-97.114;2023-03-08T05:04:13;5.38;;;4.07;;
19621;SDS011;9958;33.196;-97.114;2023-03-08T05:06:42;8.88;;;4.20;;
19621;SDS011;9958;33.196;-97.114;2023-03-08T05:09:10;7.65;;;4.28;;
19621;SDS011;9958;33.196;-97.114;2023-03-08T05:11:40;6.03;;;4.22;;
19621;SDS011;9958;33.196;-97.114;2023-03-08T05:14:08;6.85;;;4.30;;
19621;SDS011;9958;33.196;-97.114;2023-03-08T05:16:36;7.22;;;3.88;;
19621;SDS011;9958;33.196;-97.114;2023-03-08T05:19:05;8.48;;;3.67;;
19621;SDS011;9958;33.196;-97.114;2023-03-08T05:21:33;4.78;;;4.05;;
19621;SDS011;9958;33.196;-97.114;2023-03-08T05:24:01;3.97;;;3.58;;
19621;SDS011;9958;33.196;-97.114;2023-03-08T05:26:29;6.13;;;3.90;;
19621;SDS011;9958;33.196;-97.114;2023-03-08T05:29:01;7.10;;;4.50;;
19621;SDS011;9958;33.196;-97.114;2023-03-08T05:31:31;6.75;;;3.85;;
19621;SDS011;9958;33.196;-97.114;2023-03-08T05:34:01;5.32;;;3.70;;
19621;SDS011;9958;33.196;-97.114;2023-03-08T05:36:29;4.82;;;3.95;;
19621;SDS011;9958;33.196;-97.114;2023-03-08T05:38:57;5.85;;;4.15;;
19621;SDS011;9958;33.196;-97.114;2023-03-08T05:41:25;9.23;;;4.25;;
19621;SDS011;9958;33.196;-97.114;2023-03-08T05:43:54;6.35;;;3.80;;
19621;SDS011;9958;33.196;-97.114;2023-03-08T05:46:24;5.13;;;4.47;;
19621;SDS011;9958;33.196;-97.114;2023-03-08T05:48:52;7.63;;;3.78;;
19621;SDS011;9958;33.196;-97.114;2023-03-08T05:51:21;4.82;;;3.47;;
19621;SDS011;9958;33.196;-97.114;2023-03-08T05:53:49;6.95;;;3.60;;
19621;SDS011;9958;33.196;-97.114;2023-03-08T05:56:18;6.20;;;3.58;;
19621;SDS011;9958;33.196;-97.114;2023-03-08T05:58:47;5.85;;;3.97;;
19621;SDS011;9958;33.196;-97.114;2023-03-08T06:01:17;7.30;;;4.03;;
19621;SDS011;9958;33.196;-97.114;2023-03-08T06:03:48;7.43;;;4.05;;
19621;SDS011;9958;33.196;-97.114;2023-03-08T06:06:18;8.43;;;3.85;;
19621;SDS011;9958;33.196;-97.114;2023-03-08T06:08:47;6.07;;;4.10;;
19621;SDS011;9958;33.196;-97.114;2023-03-08T06:11:16;8.75;;;4.03;;
19621;SDS011;9958;33.196;-97.114;2023-03-08T06:13:45;7.57;;;3.80;;
19621;SDS011;9958;33.196;-97.114;2023-03-08T06:16:13;7.05;;;3.95;;
19621;SDS011;9958;33.196;-97.114;2023-03-08T06:18:41;5.63;;;4.13;;
19621;SDS011;9958;33.196;-97.114;2023-03-08T06:21:12;6.55;;;4.03;;
19621;SDS011;9958;33.196;-97.114;2023-03-08T06:23:41;4.80;;;3.63;;
19621;SDS011;9958;33.196;-97.114;2023-03-08T06:26:10;6.40;;;3.80;;
19621;SDS011;9958;33.196;-97.114;2023-03-08T06:28:39;6.07;;;4.25;;
19621;SDS011;9958;33.196;-97.114;2023-03-08T06:31:09;6.68;;;4.50;;
19621;SDS011;9958;33.196;-97.114;2023-03-08T06:33:39;8.38;;;3.83;;
19621;SDS011;9958;33.196;-97.114;2023-03-08T06:36:08;4.88;;;4.03;;
19621;SDS011;9958;33.196;-97.114;2023-03-08T06:38:40;7.90;;;4.40;;
19621;SDS011;9958;33.196;-97.114;2023-03-08T06:41:13;7.10;;;3.92;;
19621;SDS011;9958;33.196;-97.114;2023-03-08T06:43:43;6.63;;;3.88;;
19621;SDS011;9958;33.196;-97.114;2023-03-08T06:46:12;5.95;;;3.90;;
19621;SDS011;9958;33.196;-97.114;2023-03-08T06:48:41;8.50;;;4.25;;
19621;SDS011;9958;33.196;-97.114;2023-03-08T06:51:12;7.00;;;4.00;;
19621;SDS011;9958;33.196;-97.114;2023-03-08T06:53:40;7.93;;;4.47;;
19621;SDS011;9958;33.196;-97.114;2023-03-08T06:56:08;6.70;;;4.35;;
19621;SDS011;9958;33.196;-97.114;2023-03-08T06:58:40;6.57;;;4.28;;
19621;SDS011;9958;33.196;-97.114;2023-03-08T07:01:08;4.57;;;3.83;;
19621;SDS011;9958;33.196;-97.114;2023-03-08T07:03:38;4.50;;;3.88;;
19621;SDS011;9958;33.196;-97.114;2023-03-08T07:06:09;8.45;;;4.10;;
19621;SDS011;9958;33.196;-97.114;2023-03-08T07:08:39;5.93;;;3.72;;
19621;SDS011;9958;33.196;-97.114;2023-03-08T07:11:08;7.03;;;3.90;;
19621;SDS011;9958;33.196;-97.114;2023-03-08T07:13:36;12.70;;;4.35;;
19621;SDS011;9958;33.196;-97.114;2023-03-08T07:16:05;7.80;;;4.28;;
19621;SDS011;9958;33.196;-97.114;2023-03-08T07:18:34;10.95;;;4.32;;
19621;SDS011;9958;33.196;-97.114;2023-03-08T07:21:02;7.35;;;4.53;;
19621;SDS011;9958;33.196;-97.114;2023-03-08T07:23:33;4.95;;;4.05;;
19621;SDS011;9958;33.196;-97.114;2023-03-08T07:26:03;6.60;;;4.22;;
19621;SDS011;9958;33.196;-97.114;2023-03-08T07:28:32;9.98;;;4.50;;
19621;SDS011;9958;33.196;-97.114;2023-03-08T07:31:00;7.45;;;4.60;;
19621;SDS011;9958;33.196;-97.114;2023-03-08T07:33:28;9.00;;;4.05;;
19621;SDS011;9958;33.196;-97.114;2023-03-08T07:35:57;8.40;;;3.97;;
19621;SDS011;9958;33.196;-97.114;2023-03-08T07:38:27;4.95;;;3.50;;
19621;SDS011;9958;33.196;-97.114;2023-03-08T07:40:57;5.47;;;4.10;;
19621;SDS011;9958;33.196;-97.114;2023-03-08T07:43:25;6.05;;;4.15;;
19621;SDS011;9958;33.196;-97.114;2023-03-08T07:45:54;8.55;;;3.83;;
19621;SDS011;9958;33.196;-97.114;2023-03-08T07:48:24;8.40;;;4.05;;
19621;SDS011;9958;33.196;-97.114;2023-03-08T07:50:53;6.78;;;4.32;;
19621;SDS011;9958;33.196;-97.114;2023-03-08T07:53:21;8.82;;;3.97;;
19621;SDS011;9958;33.196;-97.114;2023-03-08T07:55:49;7.20;;;4.20;;
19621;SDS011;9958;33.196;-97.114;2023-03-08T07:58:19;7.55;;;4.07;;
19621;SDS011;9958;33.196;-97.114;2023-03-08T08:00:47;7.28;;;3.80;;
19621;SDS011;9958;33.196;-97.114;2023-03-08T08:03:16;5.53;;;3.85;;
19621;SDS011;9958;33.196;-97.114;2023-03-08T08:05:44;8.38;;;4.10;;
19621;SDS011;9958;33.196;-97.114;2023-03-08T08:08:12;6.88;;;3.78;;
19621;SDS011;9958;33.196;-97.114;2023-03-08T08:10:41;7.95;;;4.13;;
19621;SDS011;9958;33.196;-97.114;2023-03-08T08:13:09;6.03;;;3.72;;
19621;SDS011;9958;33.196;-97.114;2023-03-08T08:15:39;6.90;;;4.35;;
19621;SDS011;9958;33.196;-97.114;2023-03-08T08:18:08;5.45;;;3.75;;
19621;SDS011;9958;33.196;-97.114;2023-03-08T08:20:36;4.63;;;3.75;;
19621;SDS011;9958;33.196;-97.114;2023-03-08T08:23:04;9.25;;;4.18;;
19621;SDS011;9958;33.196;-97.114;2023-03-08T08:25:33;8.32;;;4.28;;
19621;SDS011;9958;33.196;-97.114;2023-03-08T08:28:01;6.53;;;4.72;;
19621;SDS011;9958;33.196;-97.114;2023-03-08T08:30:30;10.75;;;4.85;;
19621;SDS011;9958;33.196;-97.114;2023-03-08T08:32:59;8.57;;;4.28;;
19621;SDS011;9958;33.196;-97.114;2023-03-08T08:35:28;8.23;;;4.82;;
19621;SDS011;9958;33.196;-97.114;2023-03-08T08:37:56;17.50;;;5.75;;
19621;SDS011;9958;33.196;-97.114;2023-03-08T08:40:24;14.68;;;5.90;;
19621;SDS011;9958;33.196;-97.114;2023-03-08T08:42:53;17.08;;;6.78;;
19621;SDS011;9958;33.196;-97.114;2023-03-08T08:45:21;12.98;;;6.80;;
19621;SDS011;9958;33.196;-97.114;2023-03-08T08:47:49;26.67;;;7.25;;
19621;SDS011;9958;33.196;-97.114;2023-03-08T08:50:19;23.48;;;8.10;;
19621;SDS011;9958;33.196;-97.114;2023-03-08T08:52:47;29.23;;;8.18;;
19621;SDS011;9958;33.196;-97.114;2023-03-08T08:55:16;24.25;;;7.70;;
19621;SDS011;9958;33.196;-97.114;2023-03-08T08:57:44;24.52;;;8.25;;
19621;SDS011;9958;33.196;-97.114;2023-03-08T09:00:13;25.48;;;9.15;;
19621;SDS011;9958;33.196;-97.114;2023-03-08T09:02:42;18.85;;;9.30;;
19621;SDS011;9958;33.196;-97.114;2023-03-08T09:05:10;22.95;;;9.02;;
19621;SDS011;9958;33.196;-97.114;2023-03-08T09:07:40;22.80;;;8.15;;
19621;SDS011;9958;33.196;-97.114;2023-03-08T09:10:09;21.88;;;9.30;;
19621;SDS011;9958;33.196;-97.114;2023-03-08T09:12:38;20.92;;;8.70;;
19621;SDS011;9958;33.196;-97.114;2023-03-08T09:15:07;24.75;;;8.65;;
19621;SDS011;9958;33.196;-97.114;2023-03-08T09:17:36;18.17;;;7.82;;
19621;SDS011;9958;33.196;-97.114;2023-03-08T09:20:05;15.10;;;7.95;;
19621;SDS011;9958;33.196;-97.114;2023-03-08T09:22:35;18.13;;;8.13;;
19621;SDS011;9958;33.196;-97.114;2023-03-08T09:25:06;19.45;;;7.57;;
19621;SDS011;9958;33.196;-97.114;2023-03-08T09:27:35;16.55;;;7.70;;
19621;SDS011;9958;33.196;-97.114;2023-03-08T09:30:07;16.85;;;7.38;;
19621;SDS011;9958;33.196;-97.114;2023-03-08T09:32:37;20.98;;;7.97;;
19621;SDS011;9958;33.196;-97.114;2023-03-08T09:35:06;20.92;;;7.80;;
19621;SDS011;9958;33.196;-97.114;2023-03-08T09:37:34;21.73;;;8.48;;
19621;SDS011;9958;33.196;-97.114;2023-03-08T09:40:05;20.75;;;7.70;;
19621;SDS011;9958;33.196;-97.114;2023-03-08T09:42:35;21.23;;;7.82;;
19621;SDS011;9958;33.196;-97.114;2023-03-08T09:45:06;22.60;;;8.23;;
19621;SDS011;9958;33.196;-97.114;2023-03-08T09:47:44;17.23;;;7.40;;
19621;SDS011;9958;33.196;-97.114;2023-03-08T09:50:20;23.27;;;7.90;;
19621;SDS011;9958;33.196;-97.114;2023-03-08T09:52:57;14.18;;;7.32;;
19621;SDS011;9958;33.196;-97.114;2023-03-08T09:55:32;19.75;;;7.55;;
19621;SDS011;9958;33.196;-97.114;2023-03-08T09:58:03;16.63;;;7.88;;
19621;SDS011;9958;33.196;-97.114;2023-03-08T10:00:40;17.35;;;7.97;;
19621;SDS011;9958;33.196;-97.114;2023-03-08T10:03:25;18.52;;;8.25;;
19621;SDS011;9958;33.196;-97.114;2023-03-08T10:06:15;17.75;;;7.63;;
19621;SDS011;9958;33.196;-97.114;2023-03-08T10:08:59;19.63;;;7.38;;
19621;SDS011;9958;33.196;-97.114;2023-03-08T10:11:35;16.85;;;7.97;;
19621;SDS011;9958;33.196;-97.114;2023-03-08T10:14:17;17.55;;;7.32;;
19621;SDS011;9958;33.196;-97.114;2023-03-08T10:16:51;16.30;;;7.82;;
19621;SDS011;9958;33.196;-97.114;2023-03-08T10:19:24;14.73;;;7.38;;
19621;SDS011;9958;33.196;-97.114;2023-03-08T10:21:57;18.23;;;7.93;;
19621;SDS011;9958;33.196;-97.114;2023-03-08T10:24:35;16.35;;;7.70;;
19621;SDS011;9958;33.196;-97.114;2023-03-08T10:27:13;16.23;;;7.75;;
19621;SDS011;9958;33.196;-97.114;2023-03-08T10:29:48;21.52;;;8.98;;
19621;SDS011;9958;33.196;-97.114;2023-03-08T10:32:17;17.15;;;7.93;;
19621;SDS011;9958;33.196;-97.114;2023-03-08T10:34:45;14.23;;;7.30;;
19621;SDS011;9958;33.196;-97.114;2023-03-08T10:37:14;15.35;;;7.35;;
19621;SDS011;9958;33.196;-97.114;2023-03-08T10:39:49;19.50;;;8.15;;
19621;SDS011;9958;33.196;-97.114;2023-03-08T10:42:23;14.13;;;7.45;;
19621;SDS011;9958;33.196;-97.114;2023-03-08T10:44:54;14.77;;;7.22;;
19621;SDS011;9958;33.196;-97.114;2023-03-08T10:47:26;13.30;;;7.38;;
19621;SDS011;9958;33.196;-97.114;2023-03-08T10:50:05;13.05;;;7.38;;
19621;SDS011;9958;33.196;-97.114;2023-03-08T10:52:39;14.75;;;8.05;;
19621;SDS011;9958;33.196;-97.114;2023-03-08T10:55:10;16.65;;;8.77;;
19621;SDS011;9958;33.196;-97.114;2023-03-08T10:57:42;19.15;;;7.93;;
19621;SDS011;9958;33.196;-97.114;2023-03-08T11:00:22;14.95;;;7.07;;
19621;SDS011;9958;33.196;-97.114;2023-03-08T11:03:02;16.52;;;7.30;;
19621;SDS011;9958;33.196;-97.114;2023-03-08T11:05:49;15.98;;;7.40;;
19621;SDS011;9958;33.196;-97.114;2023-03-08T11:08:19;13.65;;;7.32;;
19621;SDS011;9958;33.196;-97.114;2023-03-08T11:10:58;14.82;;;7.30;;
19621;SDS011;9958;33.196;-97.114;2023-03-08T11:13:33;17.55;;;7.65;;
19621;SDS011;9958;33.196;-97.114;2023-03-08T11:19:02;16.42;;;6.93;;
19621;SDS011;9958;33.196;-97.114;2023-03-08T11:21:44;15.23;;;7.53;;
19621;SDS011;9958;33.196;-97.114;2023-03-08T11:24:30;10.95;;;7.05;;
19621;SDS011;9958;33.196;-97.114;2023-03-08T11:27:13;23.15;;;7.22;;
19621;SDS011;9958;33.196;-97.114;2023-03-08T11:29:57;13.50;;;7.70;;
19621;SDS011;9958;33.196;-97.114;2023-03-08T11:32:39;14.27;;;6.57;;
19621;SDS011;9958;33.196;-97.114;2023-03-08T11:35:19;15.27;;;6.65;;
19621;SDS011;9958;33.196;-97.114;2023-03-08T11:37:57;12.68;;;6.63;;
19621;SDS011;9958;33.196;-97.114;2023-03-08T11:40:31;17.50;;;7.03;;
19621;SDS011;9958;33.196;-97.114;2023-03-08T11:43:12;13.65;;;6.32;;
19621;SDS011;9958;33.196;-97.114;2023-03-08T11:45:52;5.93;;;3.92;;
19621;SDS011;9958;33.196;-97.114;2023-03-08T11:51:48;4.00;;;2.70;;
19621;SDS011;9958;33.196;-97.114;2023-03-08T11:54:26;3.28;;;2.40;;
19621;SDS011;9958;33.196;-97.114;2023-03-08T11:57:07;2.33;;;2.13;;
19621;SDS011;9958;33.196;-97.114;2023-03-08T11:59:38;2.85;;;2.55;;
19621;SDS011;9958;33.196;-97.114;2023-03-08T12:02:14;2.40;;;2.17;;
19621;SDS011;9958;33.196;-97.114;2023-03-08T12:04:48;2.80;;;2.42;;
19621;SDS011;9958;33.196;-97.114;2023-03-08T12:07:25;2.65;;;2.08;;
19621;SDS011;9958;33.196;-97.114;2023-03-08T12:10:00;2.58;;;2.08;;
19621;SDS011;9958;33.196;-97.114;2023-03-08T12:12:34;2.50;;;2.30;;
19621;SDS011;9958;33.196;-97.114;2023-03-08T12:15:12;2.08;;;1.88;;
19621;SDS011;9958;33.196;-97.114;2023-03-08T12:17:49;2.28;;;2.05;;
19621;SDS011;9958;33.196;-97.114;2023-03-08T12:20:22;4.15;;;2.45;;
19621;SDS011;9958;33.196;-97.114;2023-03-08T12:22:56;3.28;;;2.25;;
19621;SDS011;9958;33.196;-97.114;2023-03-08T12:25:34;2.65;;;2.00;;
19621;SDS011;9958;33.196;-97.114;2023-03-08T12:28:09;3.20;;;2.40;;
19621;SDS011;9958;33.196;-97.114;2023-03-08T12:30:48;4.20;;;2.20;;
19621;SDS011;9958;33.196;-97.114;2023-03-08T12:33:28;2.13;;;1.92;;
19621;SDS011;9958;33.196;-97.114;2023-03-08T12:35:59;3.10;;;2.15;;
19621;SDS011;9958;33.196;-97.114;2023-03-08T12:38:29;3.03;;;2.00;;
19621;SDS011;9958;33.196;-97.114;2023-03-08T12:41:00;2.30;;;2.08;;
19621;SDS011;9958;33.196;-97.114;2023-03-08T12:43:30;3.17;;;1.88;;
19621;SDS011;9958;33.196;-97.114;2023-03-08T12:46:02;1.67;;;1.58;;
19621;SDS011;9958;33.196;-97.114;2023-03-08T12:48:34;1.77;;;1.60;;
19621;SDS011;9958;33.196;-97.114;2023-03-08T12:51:06;1.90;;;1.80;;
19621;SDS011;9958;33.196;-97.114;2023-03-08T12:53:54;2.28;;;1.83;;
19621;SDS011;9958;33.196;-97.114;2023-03-08T12:56:26;4.63;;;1.88;;
19621;SDS011;9958;33.196;-97.114;2023-03-08T12:58:57;2.13;;;1.83;;
19621;SDS011;9958;33.196;-97.114;2023-03-08T13:01:32;2.13;;;1.75;;
19621;SDS011;9958;33.196;-97.114;2023-03-08T13:04:05;2.83;;;2.10;;
19621;SDS011;9958;33.196;-97.114;2023-03-08T13:09:46;2.53;;;2.30;;
19621;SDS011;9958;33.196;-97.114;2023-03-08T13:12:32;2.65;;;2.17;;
19621;SDS011;9958;33.196;-97.114;2023-03-08T13:15:18;3.05;;;2.67;;
19621;SDS011;9958;33.196;-97.114;2023-03-08T13:17:51;4.82;;;2.35;;
19621;SDS011;9958;33.196;-97.114;2023-03-08T13:20:29;3.10;;;2.70;;
19621;SDS011;9958;33.196;-97.114;2023-03-08T13:23:18;2.47;;;2.28;;
19621;SDS011;9958;33.196;-97.114;2023-03-08T13:25:56;3.03;;;2.53;;
19621;SDS011;9958;33.196;-97.114;2023-03-08T13:28:36;4.47;;;3.08;;
19621;SDS011;9958;33.196;-97.114;2023-03-08T13:31:10;3.42;;;2.67;;
19621;SDS011;9958;33.196;-97.114;2023-03-08T13:33:41;3.78;;;3.05;;
19621;SDS011;9958;33.196;-97.114;2023-03-08T13:36:18;2.83;;;2.05;;
19621;SDS011;9958;33.196;-97.114;2023-03-08T13:38:54;3.13;;;2.63;;
19621;SDS011;9958;33.196;-97.114;2023-03-08T13:41:30;2.60;;;2.30;;
19621;SDS011;9958;33.196;-97.114;2023-03-08T13:44:00;3.25;;;2.30;;
19621;SDS011;9958;33.196;-97.114;2023-03-08T13:46:28;3.22;;;2.30;;
19621;SDS011;9958;33.196;-97.114;2023-03-08T13:48:57;3.00;;;2.47;;
19621;SDS011;9958;33.196;-97.114;2023-03-08T13:51:28;4.50;;;2.92;;
19621;SDS011;9958;33.196;-97.114;2023-03-08T13:53:56;3.75;;;2.97;;
19621;SDS011;9958;33.196;-97.114;2023-03-08T13:56:26;4.60;;;3.00;;
19621;SDS011;9958;33.196;-97.114;2023-03-08T13:58:55;6.35;;;3.63;;
19621;SDS011;9958;33.196;-97.114;2023-03-08T14:01:25;6.88;;;4.20;;
19621;SDS011;9958;33.196;-97.114;2023-03-08T14:03:54;6.05;;;3.50;;
19621;SDS011;9958;33.196;-97.114;2023-03-08T14:06:26;6.35;;;4.22;;
19621;SDS011;9958;33.196;-97.114;2023-03-08T14:08:58;8.00;;;4.70;;
19621;SDS011;9958;33.196;-97.114;2023-03-08T14:11:28;4.68;;;3.78;;
19621;SDS011;9958;33.196;-97.114;2023-03-08T14:13:58;7.43;;;4.72;;
19621;SDS011;9958;33.196;-97.114;2023-03-08T14:16:29;6.63;;;4.68;;
19621;SDS011;9958;33.196;-97.114;2023-03-08T14:18:59;10.40;;;5.32;;
19621;SDS011;9958;33.196;-97.114;2023-03-08T14:21:36;10.25;;;5.20;;
19621;SDS011;9958;33.196;-97.114;2023-03-08T14:24:05;10.80;;;5.22;;
19621;SDS011;9958;33.196;-97.114;2023-03-08T14:26:52;10.23;;;6.30;;
19621;SDS011;9958;33.196;-97.114;2023-03-08T14:29:21;10.73;;;6.10;;
19621;SDS011;9958;33.196;-97.114;2023-03-08T14:31:51;14.85;;;6.57;;
19621;SDS011;9958;33.196;-97.114;2023-03-08T14:34:22;12.23;;;7.40;;
19621;SDS011;9958;33.196;-97.114;2023-03-08T14:36:54;9.95;;;6.32;;
19621;SDS011;9958;33.196;-97.114;2023-03-08T14:39:25;11.82;;;7.35;;
19621;SDS011;9958;33.196;-97.114;2023-03-08T14:41:54;10.50;;;6.03;;
19621;SDS011;9958;33.196;-97.114;2023-03-08T14:44:23;12.55;;;6.95;;
19621;SDS011;9958;33.196;-97.114;2023-03-08T14:46:54;12.05;;;7.25;;
19621;SDS011;9958;33.196;-97.114;2023-03-08T14:49:26;12.70;;;7.00;;
19621;SDS011;9958;33.196;-97.114;2023-03-08T14:51:57;11.57;;;6.88;;
19621;SDS011;9958;33.196;-97.114;2023-03-08T14:54:29;10.88;;;6.95;;
19621;SDS011;9958;33.196;-97.114;2023-03-08T14:57:09;12.60;;;7.53;;